Time;durP1;ratioP1;P1;durP2;ratioP2;P2;SDS_P1;SDS_P2;PMS_P1;PMS_P2;Temp;Humidity;BMP_temperature;BMP_pressure;BME280_temperature;BME280_humidity;BME280_pressure;Samples;Min_cycle;Max_cycle;Signal;HPM_P1;HPM_P2
2022/05/16 00:01:39;;;;;;;9.13;2.27;;;;;;;-145.18;100.00;60484.78;5032955;28;20075;-67
2022/05/16 00:04:04;;;;;;;7.07;2.30;;;;;;;-145.18;100.00;60484.78;5033990;28;20065;-67
2022/05/16 00:06:30;;;;;;;7.77;2.17;;;;;;;-145.18;100.00;60484.78;5036011;28;22928;-67
2022/05/16 00:08:55;;;;;;;8.40;2.10;;;;;;;-145.18;100.00;60484.78;5032308;28;20025;-67
2022/05/16 00:11:21;;;;;;;6.17;2.10;;;;;;;-145.18;100.00;60484.78;5030761;28;20100;-67
2022/05/16 00:13:47;;;;;;;6.37;2.20;;;;;;;-145.18;100.00;60484.78;5031517;28;20021;-67
2022/05/16 00:16:13;;;;;;;7.13;2.10;;;;;;;-145.18;100.00;60484.78;5031651;28;20039;-67
2022/05/16 00:18:38;;;;;;;8.33;2.00;;;;;;;-145.18;100.00;60484.78;5033097;28;20025;-67
2022/05/16 00:21:04;;;;;;;7.03;1.97;;;;;;;-145.18;100.00;60484.78;5039892;28;20127;-67
2022/05/16 00:23:29;;;;;;;7.33;2.37;;;;;;;-145.18;100.00;60484.78;5031299;28;20026;-67
2022/05/16 00:25:54;;;;;;;6.37;2.20;;;;;;;-145.18;100.00;60484.78;5043622;28;20032;-67
2022/05/16 00:28:20;;;;;;;7.30;2.10;;;;;;;-145.18;100.00;60484.78;5036858;28;21538;-67
2022/05/16 00:30:45;;;;;;;5.97;1.90;;;;;;;-145.18;100.00;60484.78;5026750;28;20393;-67
2022/05/16 00:33:10;;;;;;;5.60;2.13;;;;;;;-145.18;100.00;60484.78;5017506;28;20733;-67
2022/05/16 00:35:36;;;;;;;10.60;2.53;;;;;;;-145.18;100.00;60484.78;5043420;28;20084;-67
2022/05/16 00:38:01;;;;;;;10.43;2.27;;;;;;;-145.18;100.00;60484.78;5042297;28;20508;-67
2022/05/16 00:40:26;;;;;;;10.37;2.63;;;;;;;-145.18;100.00;60484.78;5044530;28;20025;-67
2022/05/16 00:43:00;;;;;;;6.97;2.23;;;;;;;-145.18;100.00;60484.78;5043482;28;20495;-67
2022/05/16 00:45:26;;;;;;;5.37;2.10;;;;;;;-145.18;100.00;60484.78;5036565;28;20385;-67
2022/05/16 00:47:51;;;;;;;22.40;2.27;;;;;;;-145.18;100.00;60484.78;5032724;28;20022;-67
2022/05/16 00:50:17;;;;;;;6.63;2.20;;;;;;;-145.18;100.00;60484.78;5030265;28;20057;-67
2022/05/16 00:52:47;;;;;;;5.30;1.80;;;;;;;-145.18;100.00;60484.78;5034275;28;20389;-68
2022/05/16 00:55:22;;;;;;;7.10;2.40;;;;;;;-145.18;100.00;60484.78;5039085;28;20040;-67
2022/05/16 00:57:51;;;;;;;6.60;2.20;;;;;;;-145.18;100.00;60484.78;5030333;28;20065;-67
2022/05/16 01:00:32;;;;;;;6.30;1.90;;;;;;;-145.18;100.00;60484.78;5039927;28;20030;-67
2022/05/16 01:05:51;;;;;;;4.67;2.10;;;;;;;-145.18;100.00;60484.78;5039153;28;20500;-68
2022/05/16 01:08:22;;;;;;;9.80;2.23;;;;;;;-145.18;100.00;60484.78;5035232;28;20025;-68
2022/05/16 01:10:47;;;;;;;6.88;2.60;;;;;;;-145.18;100.00;60484.78;5037292;28;20082;-67
2022/05/16 01:13:13;;;;;;;5.60;2.53;;;;;;;-145.18;100.00;60484.78;5039845;28;20025;-68
2022/05/16 01:15:43;;;;;;;10.27;2.20;;;;;;;-145.18;100.00;60484.78;5036046;28;20525;-67
2022/05/16 01:18:11;;;;;;;8.00;2.33;;;;;;;-145.18;100.00;60484.78;5035958;28;21893;-68
2022/05/16 01:20:45;;;;;;;7.60;2.30;;;;;;;-145.18;100.00;60484.78;5043686;28;20102;-67
2022/05/16 01:23:14;;;;;;;7.20;1.93;;;;;;;-145.18;100.00;60484.78;5039503;28;20037;-68
2022/05/16 01:25:40;;;;;;;7.37;2.07;;;;;;;-145.18;100.00;60484.78;5036257;28;20037;-68
2022/05/16 01:28:05;;;;;;;6.10;2.00;;;;;;;-145.18;100.00;60484.78;5039687;28;20039;-67
2022/05/16 01:30:48;;;;;;;8.87;2.00;;;;;;;-145.18;100.00;60484.78;5038384;28;20029;-68
2022/05/16 01:33:18;;;;;;;4.63;2.00;;;;;;;-145.18;100.00;60484.78;5037514;28;20095;-67
2022/05/16 01:35:44;;;;;;;4.43;2.23;;;;;;;-145.18;100.00;60484.78;5042270;28;20068;-67
2022/05/16 01:38:21;;;;;;;5.73;2.20;;;;;;;-145.18;100.00;60484.78;5043306;28;20051;-68
2022/05/16 01:40:59;;;;;;;6.27;2.00;;;;;;;-145.18;100.00;60484.78;5041762;28;20651;-68
2022/05/16 01:43:35;;;;;;;5.33;2.20;;;;;;;-145.18;100.00;60484.78;5039121;28;20132;-68
2022/05/16 01:46:01;;;;;;;5.37;2.20;;;;;;;-145.18;100.00;60484.78;5033255;28;20719;-68
2022/05/16 01:48:30;;;;;;;5.70;2.30;;;;;;;-145.18;100.00;60484.78;5041378;28;20025;-68
2022/05/16 01:50:59;;;;;;;5.30;2.20;;;;;;;-145.18;100.00;60484.78;5039445;28;20037;-67
2022/05/16 01:53:25;;;;;;;6.63;2.27;;;;;;;-145.18;100.00;60484.78;5037767;28;20036;-68
2022/05/16 01:55:50;;;;;;;5.07;2.13;;;;;;;-145.18;100.00;60484.78;5048417;28;20104;-68
2022/05/16 01:58:16;;;;;;;7.53;2.10;;;;;;;-145.18;100.00;60484.78;5033784;28;20112;-68
2022/05/16 02:00:41;;;;;;;6.40;2.27;;;;;;;-145.18;100.00;60484.78;5038090;28;20520;-67
2022/05/16 02:03:07;;;;;;;5.50;1.90;;;;;;;-145.18;100.00;60484.78;5046495;28;20036;-68
2022/05/16 02:05:33;;;;;;;4.97;2.23;;;;;;;-145.18;100.00;60484.78;5035712;28;20029;-67
2022/05/16 02:07:59;;;;;;;7.97;2.83;;;;;;;-145.18;100.00;60484.78;5041196;28;20037;-67
2022/05/16 02:10:26;;;;;;;8.37;2.37;;;;;;;-145.18;100.00;60484.78;5033501;28;20032;-67
2022/05/16 02:12:53;;;;;;;5.00;2.30;;;;;;;-145.18;100.00;60484.78;5030938;28;20037;-67
2022/05/16 02:15:22;;;;;;;8.23;2.90;;;;;;;-145.18;100.00;60484.78;5036376;28;20112;-67
2022/05/16 02:17:47;;;;;;;5.50;2.37;;;;;;;-145.18;100.00;60484.78;5042265;28;20120;-67
2022/05/16 02:20:13;;;;;;;7.03;2.20;;;;;;;-145.18;100.00;60484.78;5040307;28;20136;-67
2022/05/16 02:25:23;;;;;;;5.47;2.20;;;;;;;-145.18;100.00;60484.78;5035379;28;20400;-67
2022/05/16 02:27:50;;;;;;;7.70;2.47;;;;;;;-145.18;100.00;60484.78;5031171;28;20021;-67
2022/05/16 02:30:16;;;;;;;8.73;2.53;;;;;;;-145.18;100.00;60484.78;5030772;28;20041;-67
2022/05/16 02:32:42;;;;;;;7.90;2.20;;;;;;;-145.18;100.00;60484.78;5038544;28;20032;-67
2022/05/16 02:35:08;;;;;;;5.63;2.20;;;;;;;-145.18;100.00;60484.78;5038158;28;20128;-67
2022/05/16 02:37:34;;;;;;;6.20;2.37;;;;;;;-145.18;100.00;60484.78;5036234;28;20017;-67
2022/05/16 02:40:00;;;;;;;5.93;2.40;;;;;;;-145.18;100.00;60484.78;5046644;28;20040;-67
2022/05/16 02:42:25;;;;;;;4.67;2.30;;;;;;;-145.18;100.00;60484.78;5039473;28;20398;-67
2022/05/16 02:44:53;;;;;;;5.03;2.50;;;;;;;-145.18;100.00;60484.78;5045230;28;20079;-67
2022/05/16 02:47:22;;;;;;;6.20;2.97;;;;;;;-145.18;100.00;60484.78;5041719;28;20029;-67
2022/05/16 02:49:48;;;;;;;6.30;2.33;;;;;;;-145.18;100.00;60484.78;5032037;28;20021;-67
2022/05/16 02:52:14;;;;;;;6.37;2.40;;;;;;;-145.18;100.00;60484.78;5033951;28;20026;-67
2022/05/16 02:54:39;;;;;;;4.23;2.30;;;;;;;-145.18;100.00;60484.78;5048364;28;20029;-67
2022/05/16 02:57:06;;;;;;;8.10;2.57;;;;;;;-145.18;100.00;60484.78;5039993;28;20086;-67
2022/05/16 02:59:33;;;;;;;5.23;2.30;;;;;;;-145.18;100.00;60484.78;5035058;28;20029;-67
2022/05/16 03:02:00;;;;;;;8.17;2.83;;;;;;;-145.18;100.00;60484.78;5035275;28;20112;-67
2022/05/16 03:04:25;;;;;;;6.83;2.60;;;;;;;-145.18;100.00;60484.78;5035649;28;20038;-67
2022/05/16 03:06:51;;;;;;;8.73;2.43;;;;;;;-145.18;100.00;60484.78;5043919;28;20481;-67
2022/05/16 03:09:17;;;;;;;5.30;2.60;;;;;;;-145.18;100.00;60484.78;5039883;28;20036;-67
2022/05/16 03:11:44;;;;;;;5.90;2.63;;;;;;;-145.18;100.00;60484.78;5037904;28;20040;-67
2022/05/16 03:14:10;;;;;;;7.53;2.70;;;;;;;-145.18;100.00;60484.78;5034981;28;20116;-67
2022/05/16 03:16:36;;;;;;;8.13;2.70;;;;;;;-145.18;100.00;60484.78;5044206;28;20021;-67
2022/05/16 03:19:03;;;;;;;7.47;2.67;;;;;;;-145.18;100.00;60484.78;5038251;28;20021;-67
2022/05/16 03:21:29;;;;;;;7.47;2.83;;;;;;;-145.18;100.00;60484.78;5036474;28;20025;-67
2022/05/16 03:23:55;;;;;;;7.13;2.50;;;;;;;-145.18;100.00;60484.78;5031118;28;20074;-67
2022/05/16 03:26:20;;;;;;;7.87;2.80;;;;;;;-145.18;100.00;60484.78;5040961;28;20025;-67
2022/05/16 03:28:45;;;;;;;8.17;3.17;;;;;;;-145.18;100.00;60484.78;5041054;28;20500;-67
2022/05/16 03:31:11;;;;;;;9.70;3.33;;;;;;;-145.18;100.00;60484.78;5034968;28;20068;-67
2022/05/16 03:33:36;;;;;;;6.27;2.90;;;;;;;-145.18;100.00;60484.78;5036527;28;20052;-67
2022/05/16 03:36:02;;;;;;;7.87;2.60;;;;;;;-145.18;100.00;60484.78;5037344;28;20040;-67
2022/05/16 03:41:13;;;;;;;7.97;2.83;;;;;;;-145.18;100.00;60484.78;5037876;28;20036;-67
2022/05/16 03:43:39;;;;;;;7.23;2.70;;;;;;;-145.18;100.00;60484.78;5040628;28;20025;-67
2022/05/16 03:46:05;;;;;;;8.67;2.93;;;;;;;-145.18;100.00;60484.78;5048574;28;20437;-67
2022/05/16 03:48:32;;;;;;;8.77;2.87;;;;;;;-145.18;100.00;60484.78;5045534;28;20025;-67
2022/05/16 03:50:57;;;;;;;5.83;2.90;;;;;;;-145.18;100.00;60484.78;5049651;28;20013;-67
2022/05/16 03:53:23;;;;;;;6.43;2.57;;;;;;;-145.18;100.00;60484.78;5040691;28;20500;-67
2022/05/16 03:55:48;;;;;;;7.53;2.73;;;;;;;-145.18;100.00;60484.78;5030823;28;20029;-67
2022/05/16 03:58:14;;;;;;;6.80;2.77;;;;;;;-145.18;100.00;60484.78;5040783;28;20591;-67
2022/05/16 04:00:40;;;;;;;5.83;2.57;;;;;;;-145.18;100.00;60484.78;5030729;28;20107;-67
2022/05/16 04:03:06;;;;;;;5.53;2.50;;;;;;;-145.18;100.00;60484.78;5042480;28;20112;-67
2022/05/16 04:05:31;;;;;;;6.33;2.37;;;;;;;-145.18;100.00;60484.78;5039899;28;20108;-67
2022/05/16 04:07:56;;;;;;;6.20;2.40;;;;;;;-145.18;100.00;60484.78;5031441;28;20033;-68
2022/05/16 04:10:22;;;;;;;5.73;2.70;;;;;;;-145.18;100.00;60484.78;5030295;28;20435;-67
2022/05/16 04:12:48;;;;;;;6.47;2.20;;;;;;;-145.18;100.00;60484.78;5037149;28;20140;-67
2022/05/16 04:15:13;;;;;;;4.43;2.13;;;;;;;-145.18;100.00;60484.78;5047972;28;20381;-67
2022/05/16 04:17:39;;;;;;;9.17;2.90;;;;;;;-145.18;100.00;60484.78;5047022;28;20035;-67
2022/05/16 04:20:06;;;;;;;7.83;2.40;;;;;;;-145.18;100.00;60484.78;5036404;28;20041;-67
2022/05/16 04:22:32;;;;;;;7.40;2.70;;;;;;;-145.18;100.00;60484.78;5039082;28;20028;-67
2022/05/16 04:24:58;;;;;;;7.73;2.67;;;;;;;-145.18;100.00;60484.78;5047212;28;20049;-67
2022/05/16 04:27:24;;;;;;;6.07;2.43;;;;;;;-145.18;100.00;60484.78;5047483;28;20024;-67
2022/05/16 04:29:49;;;;;;;4.77;2.50;;;;;;;-145.18;100.00;60484.78;5033418;28;20103;-67
2022/05/16 04:32:14;;;;;;;9.77;2.67;;;;;;;-145.18;100.00;60484.78;5044548;28;20373;-67
2022/05/16 04:34:40;;;;;;;7.27;2.20;;;;;;;-145.18;100.00;60484.78;5050428;28;20042;-67
2022/05/16 04:37:05;;;;;;;5.47;2.20;;;;;;;-145.18;100.00;60484.78;5047262;28;20486;-67
2022/05/16 04:39:31;;;;;;;8.07;2.40;;;;;;;-145.18;100.00;60484.78;5043285;28;20424;-67
2022/05/16 04:44:40;;;;;;;7.37;2.30;;;;;;;-145.18;100.00;60484.78;5037034;28;20500;-67
2022/05/16 04:47:07;;;;;;;6.30;2.20;;;;;;;-145.18;100.00;60484.78;5035231;28;20024;-67
2022/05/16 04:49:33;;;;;;;5.50;2.00;;;;;;;-145.18;100.00;60484.78;5033833;28;20014;-67
2022/05/16 04:51:58;;;;;;;5.37;2.00;;;;;;;-145.18;100.00;60484.78;5033943;28;20043;-67
2022/05/16 04:54:24;;;;;;;6.60;2.20;;;;;;;-145.18;100.00;60484.78;5049019;28;20552;-67
2022/05/16 04:56:51;;;;;;;5.17;1.93;;;;;;;-145.18;100.00;60484.78;5049443;28;20029;-67
2022/05/16 04:59:17;;;;;;;5.90;2.30;;;;;;;-145.18;100.00;60484.78;5047798;28;20378;-67
2022/05/16 05:01:42;;;;;;;6.63;1.90;;;;;;;-145.18;100.00;60484.78;5034644;28;20028;-67
2022/05/16 05:04:08;;;;;;;5.28;2.00;;;;;;;-145.18;100.00;60484.78;5037363;28;20036;-67
2022/05/16 05:06:33;;;;;;;5.50;2.05;;;;;;;-145.18;100.00;60484.78;5032929;28;20021;-67
2022/05/16 05:08:59;;;;;;;4.67;1.90;;;;;;;-145.18;100.00;60484.78;5036501;28;20033;-67
2022/05/16 05:16:53;;;;;;;7.68;2.15;;;;;;;-145.18;100.00;60484.78;5033340;28;20100;-67
2022/05/16 05:19:18;;;;;;;4.60;2.05;;;;;;;-145.18;100.00;60484.78;5033086;28;20033;-67
2022/05/16 05:21:44;;;;;;;5.30;2.28;;;;;;;-145.18;100.00;60484.78;5035244;28;20144;-67
2022/05/16 05:24:09;;;;;;;6.93;2.17;;;;;;;-145.18;100.00;60484.78;5032035;28;20071;-67
2022/05/16 05:26:35;;;;;;;5.00;1.95;;;;;;;-145.18;100.00;60484.78;5034168;28;20083;-67
2022/05/16 05:29:01;;;;;;;4.45;1.88;;;;;;;-145.18;100.00;60484.78;5034299;28;20131;-67
2022/05/16 05:31:26;;;;;;;5.15;1.90;;;;;;;-145.18;100.00;60484.78;5039628;28;20111;-67
2022/05/16 05:33:53;;;;;;;7.07;2.65;;;;;;;-145.18;100.00;60484.78;5035641;28;20029;-67
2022/05/16 05:36:19;;;;;;;7.40;2.20;;;;;;;-145.18;100.00;60484.78;5047376;28;20028;-67
2022/05/16 05:38:44;;;;;;;5.93;2.13;;;;;;;-145.18;100.00;60484.78;5037098;28;20029;-67
2022/05/16 05:41:10;;;;;;;5.75;2.20;;;;;;;-145.18;100.00;60484.78;5031747;28;20026;-67
2022/05/16 05:43:36;;;;;;;6.60;2.00;;;;;;;-145.18;100.00;60484.78;5033943;28;20033;-67
2022/05/16 05:46:04;;;;;;;5.55;2.00;;;;;;;-145.18;100.00;60484.78;5050716;28;20448;-67
2022/05/16 05:48:29;;;;;;;6.50;2.13;;;;;;;-145.18;100.00;60484.78;5050822;28;20487;-67
2022/05/16 05:50:55;;;;;;;5.07;2.00;;;;;;;-145.18;100.00;60484.78;5045867;28;20018;-67
2022/05/16 05:53:20;;;;;;;7.70;2.10;;;;;;;-145.18;100.00;60484.78;5039372;28;20470;-67
2022/05/16 05:55:47;;;;;;;8.38;2.38;;;;;;;-145.18;100.00;60484.78;5033299;28;20021;-67
2022/05/16 05:58:14;;;;;;;5.63;2.20;;;;;;;-145.18;100.00;60484.78;5032775;28;20049;-67
2022/05/16 06:00:40;;;;;;;6.78;2.03;;;;;;;-145.18;100.00;60484.78;5033713;28;20105;-67
2022/05/16 06:03:05;;;;;;;4.57;2.10;;;;;;;-145.18;100.00;60484.78;5050702;28;20041;-67
2022/05/16 06:05:31;;;;;;;6.55;2.28;;;;;;;-145.18;100.00;60484.78;5049993;28;20078;-67
2022/05/16 06:07:56;;;;;;;7.28;2.10;;;;;;;-145.18;100.00;60484.78;5033142;28;20033;-67
2022/05/16 06:10:22;;;;;;;6.85;2.08;;;;;;;-145.18;100.00;60484.78;5050432;28;20485;-67
2022/05/16 06:12:47;;;;;;;6.22;2.13;;;;;;;-145.18;100.00;60484.78;5032783;28;20021;-67
2022/05/16 06:15:14;;;;;;;7.32;2.20;;;;;;;-145.18;100.00;60484.78;5033752;28;20506;-67
2022/05/16 06:17:40;;;;;;;7.43;2.17;;;;;;;-145.18;100.00;60484.78;5036390;28;20029;-67
2022/05/16 06:20:08;;;;;;;8.40;2.22;;;;;;;-145.18;100.00;60484.78;5050815;28;20016;-67
2022/05/16 06:22:38;;;;;;;7.57;1.92;;;;;;;-145.18;100.00;60484.78;5037031;28;20021;-67
2022/05/16 06:27:54;;;;;;;5.35;1.85;;;;;;;-145.18;100.00;60484.78;5032010;28;20023;-67
2022/05/16 06:30:19;;;;;;;7.72;1.92;;;;;;;-145.18;100.00;60484.78;5031987;28;20029;-67
2022/05/16 06:32:46;;;;;;;6.45;2.00;;;;;;;-145.18;100.00;60484.78;5032449;28;20026;-67
2022/05/16 06:35:12;;;;;;;5.53;2.00;;;;;;;-145.18;100.00;60484.78;5035791;28;20484;-67
2022/05/16 06:37:38;;;;;;;4.78;1.88;;;;;;;-145.18;100.00;60484.78;5039248;28;20169;-67
2022/05/16 06:40:04;;;;;;;5.93;1.83;;;;;;;-145.18;100.00;60484.78;5032014;28;20106;-67
2022/05/16 06:42:30;;;;;;;5.43;2.00;;;;;;;-145.18;100.00;60484.78;5032295;28;20068;-67
2022/05/16 06:44:55;;;;;;;7.00;1.80;;;;;;;-145.18;100.00;60484.78;5031694;28;20509;-67
2022/05/16 06:47:21;;;;;;;4.22;1.85;;;;;;;-145.18;100.00;60484.78;5031983;28;20063;-67
2022/05/16 06:49:46;;;;;;;8.80;2.03;;;;;;;-145.18;100.00;60484.78;5048486;28;20028;-67
2022/05/16 06:52:12;;;;;;;5.78;1.77;;;;;;;-145.18;100.00;60484.78;5042895;28;20443;-67
2022/05/16 06:54:37;;;;;;;6.03;1.90;;;;;;;-145.18;100.00;60484.78;5042043;28;20014;-67
2022/05/16 06:57:03;;;;;;;7.32;1.98;;;;;;;-145.18;100.00;60484.78;5034281;28;20033;-67
2022/05/16 06:59:29;;;;;;;7.20;1.90;;;;;;;-145.18;100.00;60484.78;5045899;28;20048;-67
2022/05/16 07:01:54;;;;;;;8.55;2.08;;;;;;;-145.18;100.00;60484.78;5037204;28;20036;-67
2022/05/16 07:04:19;;;;;;;7.85;1.95;;;;;;;-145.18;100.00;60484.78;5031637;28;20084;-67
2022/05/16 07:06:45;;;;;;;5.13;1.77;;;;;;;-145.18;100.00;60484.78;5032598;28;20033;-67
2022/05/16 07:09:10;;;;;;;6.32;1.70;;;;;;;-145.18;100.00;60484.78;5045249;28;20036;-67
2022/05/16 07:11:35;;;;;;;5.05;2.10;;;;;;;-145.18;100.00;60484.78;5048484;28;20025;-67
2022/05/16 07:14:01;;;;;;;5.65;2.10;;;;;;;-145.18;100.00;60484.78;5050185;28;20032;-67
2022/05/16 07:16:26;;;;;;;8.45;1.95;;;;;;;-145.18;100.00;60484.78;5048062;28;20029;-67
2022/05/16 07:18:52;;;;;;;5.80;2.05;;;;;;;-145.18;100.00;60484.78;5049254;28;20013;-67
2022/05/16 07:21:17;;;;;;;5.80;1.90;;;;;;;-145.18;100.00;60484.78;5032732;28;20044;-67
2022/05/16 07:23:43;;;;;;;5.70;1.92;;;;;;;-145.18;100.00;60484.78;5031515;28;20028;-67
2022/05/16 07:28:52;;;;;;;5.93;2.30;;;;;;;-145.18;100.00;60484.78;5035786;28;20032;-67
2022/05/16 07:31:17;;;;;;;5.75;1.50;;;;;;;-145.18;100.00;60484.78;5036933;28;20029;-67
2022/05/16 07:33:43;;;;;;;6.38;1.92;;;;;;;-145.18;100.00;60484.78;5030975;28;20458;-67
2022/05/16 07:36:08;;;;;;;5.47;2.00;;;;;;;-145.18;100.00;60484.78;5049765;28;20029;-67
2022/05/16 07:38:34;;;;;;;9.20;2.10;;;;;;;-145.18;100.00;60484.78;5045960;28;20485;-67
2022/05/16 07:40:59;;;;;;;7.20;1.77;;;;;;;-145.18;100.00;60484.78;5033661;28;20079;-67
2022/05/16 07:43:26;;;;;;;6.22;1.70;;;;;;;-145.18;100.00;60484.78;5038752;28;20025;-67
2022/05/16 07:45:51;;;;;;;4.93;1.67;;;;;;;-145.18;100.00;60484.78;5030640;28;20033;-67
2022/05/16 07:48:17;;;;;;;6.40;1.80;;;;;;;-145.18;100.00;60484.78;5030991;28;20025;-67
2022/05/16 07:50:44;;;;;;;5.75;1.65;;;;;;;-145.18;100.00;60484.78;5030941;28;20056;-67
2022/05/16 07:53:11;;;;;;;6.57;1.80;;;;;;;-145.18;100.00;60484.78;5036662;28;20489;-67
2022/05/16 07:55:38;;;;;;;6.63;1.90;;;;;;;-145.18;100.00;60484.78;5030931;28;20070;-67
2022/05/16 07:58:03;;;;;;;7.35;2.47;;;;;;;-145.18;100.00;60484.78;5047169;28;20021;-68
2022/05/16 08:00:29;;;;;;;8.82;2.10;;;;;;;-145.18;100.00;60484.78;5048957;28;20103;-67
2022/05/16 08:02:55;;;;;;;6.10;2.00;;;;;;;-145.18;100.00;60484.78;5042707;28;20513;-67
2022/05/16 08:05:21;;;;;;;6.88;1.80;;;;;;;-145.18;100.00;60484.78;5030898;28;20065;-67
2022/05/16 08:10:32;;;;;;;7.53;1.92;;;;;;;-145.18;100.00;60484.78;5051544;28;20086;-67
2022/05/16 08:13:02;;;;;;;4.05;1.60;;;;;;;-145.18;100.00;60484.78;5047011;28;20096;-67
2022/05/16 08:15:28;;;;;;;7.50;1.80;;;;;;;-145.18;100.00;60484.78;5034538;28;20033;-67
2022/05/16 08:17:54;;;;;;;4.35;1.45;;;;;;;-145.18;100.00;60484.78;5037786;28;20565;-67
2022/05/16 08:20:20;;;;;;;7.32;1.67;;;;;;;-145.18;100.00;60484.78;5034343;28;20087;-67
2022/05/16 08:22:45;;;;;;;9.05;2.13;;;;;;;-145.18;100.00;60484.78;5034710;28;20014;-67
2022/05/16 08:25:11;;;;;;;4.80;1.60;;;;;;;-145.18;100.00;60484.78;5034264;28;20021;-67
2022/05/16 08:27:36;;;;;;;5.32;1.92;;;;;;;-145.18;100.00;60484.78;5034566;28;20025;-67
2022/05/16 08:30:02;;;;;;;4.55;1.80;;;;;;;-145.18;100.00;60484.78;5032854;28;20021;-67
2022/05/16 08:32:28;;;;;;;4.50;1.65;;;;;;;-145.18;100.00;60484.78;5052186;28;20035;-67
2022/05/16 08:35:03;;;;;;;7.10;1.70;;;;;;;-145.18;100.00;60484.78;5043207;28;20025;-67
2022/05/16 08:40:14;;;;;;;5.65;1.60;;;;;;;-145.18;100.00;60484.78;5034183;28;20071;-67
2022/05/16 08:42:54;;;;;;;7.15;1.67;;;;;;;-145.18;100.00;60484.78;5034172;28;20033;-67
2022/05/16 08:45:39;;;;;;;8.90;2.15;;;;;;;-145.18;100.00;60484.78;5034079;28;20033;-67
2022/05/16 08:48:17;;;;;;;7.93;2.10;;;;;;;-145.18;100.00;60484.78;5049539;28;20033;-67
2022/05/16 08:50:53;;;;;;;6.75;1.60;;;;;;;-145.18;100.00;60484.78;5052441;28;20338;-67
2022/05/16 08:53:23;;;;;;;7.88;2.03;;;;;;;-145.18;100.00;60484.78;5041306;28;20020;-67
2022/05/16 08:55:55;;;;;;;7.10;1.95;;;;;;;-145.18;100.00;60484.78;5034178;28;20401;-67
2022/05/16 08:58:43;;;;;;;10.55;1.70;;;;;;;-145.18;100.00;60484.78;5041047;28;20473;-67
2022/05/16 09:01:13;;;;;;;4.88;1.95;;;;;;;-145.18;100.00;60484.78;5052691;28;20025;-67
2022/05/16 09:04:03;;;;;;;6.30;1.85;;;;;;;-145.18;100.00;60484.78;5051348;28;20031;-67
2022/05/16 09:06:34;;;;;;;8.55;2.10;;;;;;;-145.18;100.00;60484.78;5052361;28;20381;-67
2022/05/16 09:09:22;;;;;;;7.72;2.00;;;;;;;-145.18;100.00;60484.78;5050446;28;20504;-67
2022/05/16 09:12:01;;;;;;;4.93;1.73;;;;;;;-145.18;100.00;60484.78;5044201;28;20024;-67
2022/05/16 09:14:58;;;;;;;7.00;1.88;;;;;;;-145.18;100.00;60484.78;5033463;28;20025;-67
2022/05/16 09:18:02;;;;;;;5.85;1.60;;;;;;;-145.18;100.00;60484.78;5051746;28;20116;-67
2022/05/16 09:20:30;;;;;;;7.50;1.70;;;;;;;-145.18;100.00;60484.78;5032841;28;20029;-67
2022/05/16 09:23:10;;;;;;;5.07;1.90;;;;;;;-145.18;100.00;60484.78;5033326;28;20030;-67
2022/05/16 09:25:44;;;;;;;4.88;1.60;;;;;;;-145.18;100.00;60484.78;5043336;28;20029;-67
2022/05/16 09:31:00;;;;;;;6.32;1.70;;;;;;;-145.18;100.00;60484.78;5052079;28;20024;-67
2022/05/16 09:33:29;;;;;;;6.13;2.08;;;;;;;-145.18;100.00;60484.78;5043069;28;20064;-67
2022/05/16 09:36:09;;;;;;;8.45;2.00;;;;;;;-145.18;100.00;60484.78;5051368;28;20017;-67
2022/05/16 09:38:34;;;;;;;5.07;1.87;;;;;;;-145.18;100.00;60484.78;5043446;28;20454;-67
2022/05/16 09:40:59;;;;;;;6.35;1.88;;;;;;;-145.18;100.00;60484.78;5051267;28;20103;-67
2022/05/16 09:43:46;;;;;;;8.38;2.00;;;;;;;-145.18;100.00;60484.78;5049175;28;20370;-67
2022/05/16 09:46:31;;;;;;;6.88;1.67;;;;;;;-145.18;100.00;60484.78;5034018;28;20041;-67
2022/05/16 09:49:20;;;;;;;9.40;2.00;;;;;;;-145.18;100.00;60484.78;5046851;28;20123;-67
2022/05/16 09:51:55;;;;;;;10.27;2.10;;;;;;;-145.18;100.00;60484.78;5050094;28;20035;-67
2022/05/16 09:54:28;;;;;;;4.00;1.77;;;;;;;-145.18;100.00;60484.78;5037846;28;20231;-67
2022/05/16 09:57:03;;;;;;;6.47;1.70;;;;;;;-145.18;100.00;60484.78;5032843;28;20029;-67
2022/05/16 09:59:35;;;;;;;12.73;1.95;;;;;;;-145.18;100.00;60484.78;5038476;28;20485;-67
2022/05/16 10:02:21;;;;;;;10.02;1.90;;;;;;;-145.18;100.00;60484.78;5051734;28;20021;-67
2022/05/16 10:04:52;;;;;;;9.15;1.83;;;;;;;-145.18;100.00;60484.78;5033023;28;20121;-67
2022/05/16 10:07:43;;;;;;;5.55;1.88;;;;;;;-145.18;100.00;60484.78;5034470;28;20390;-67
2022/05/16 10:10:15;;;;;;;7.07;1.80;;;;;;;-145.18;100.00;60484.78;5044718;28;20028;-67
2022/05/16 10:12:41;;;;;;;5.35;2.00;;;;;;;-145.18;100.00;60484.78;5048953;28;20481;-67
2022/05/16 10:15:08;;;;;;;8.55;2.00;;;;;;;-145.18;100.00;60484.78;5033414;28;20025;-67
2022/05/16 10:17:37;;;;;;;7.68;2.20;;;;;;;-145.18;100.00;60484.78;5049811;28;20024;-68
2022/05/16 10:20:25;;;;;;;6.63;2.08;;;;;;;-145.18;100.00;60484.78;5035143;28;20423;-67
2022/05/16 10:22:56;;;;;;;9.63;2.20;;;;;;;-145.18;100.00;60484.78;5034566;28;20469;-67
2022/05/16 10:25:29;;;;;;;8.75;2.10;;;;;;;-145.18;100.00;60484.78;5038008;28;20025;-67
2022/05/16 10:27:57;;;;;;;8.02;2.00;;;;;;;-145.18;100.00;60484.78;5048171;28;20040;-67
2022/05/16 10:30:26;;;;;;;7.43;2.10;;;;;;;-145.18;100.00;60484.78;5044293;28;20820;-68
2022/05/16 10:35:49;;;;;;;7.15;1.98;;;;;;;-145.18;100.00;60484.78;5035595;28;20113;-68
2022/05/16 10:38:29;;;;;;;5.47;1.90;;;;;;;-145.18;100.00;60484.78;5033760;28;20025;-67
2022/05/16 10:40:58;;;;;;;6.07;1.90;;;;;;;-145.18;100.00;60484.78;5036124;28;20661;-68
2022/05/16 10:43:36;;;;;;;9.02;2.13;;;;;;;-145.18;100.00;60484.78;5033802;28;20025;-68
2022/05/16 10:46:16;;;;;;;7.50;2.03;;;;;;;-145.18;100.00;60484.78;5032038;28;20082;-68
2022/05/16 10:49:10;;;;;;;18.52;2.67;;;;;;;-145.18;100.00;60484.78;5036469;28;20108;-68
2022/05/16 10:52:04;;;;;;;8.23;1.90;;;;;;;-145.18;100.00;60484.78;5031835;28;20029;-68
2022/05/16 10:54:30;;;;;;;10.93;2.10;;;;;;;-145.18;100.00;60484.78;5027775;28;20513;-68
2022/05/16 10:57:29;;;;;;;8.10;2.60;;;;;;;-145.18;100.00;60484.78;5034615;28;20026;-68
2022/05/16 11:00:13;;;;;;;7.60;2.30;;;;;;;-145.18;100.00;60484.78;5042233;28;20044;-68
2022/05/16 11:02:41;;;;;;;6.97;1.92;;;;;;;-145.18;100.00;60484.78;5050312;28;20032;-67
2022/05/16 11:05:32;;;;;;;7.97;2.15;;;;;;;-145.18;100.00;60484.78;5049892;28;20029;-67
2022/05/16 11:08:16;;;;;;;6.80;1.80;;;;;;;-145.18;100.00;60484.78;5039265;28;20112;-68
2022/05/16 11:10:54;;;;;;;7.70;2.15;;;;;;;-145.18;100.00;60484.78;5033077;28;20097;-67
2022/05/16 11:13:29;;;;;;;7.97;2.10;;;;;;;-145.18;100.00;60484.78;5031388;28;20035;-68
2022/05/16 11:16:02;;;;;;;7.38;1.90;;;;;;;-145.18;100.00;60484.78;5031403;28;20040;-68
2022/05/16 11:18:46;;;;;;;7.78;2.17;;;;;;;-145.18;100.00;60484.78;5041354;28;20083;-68
2022/05/16 11:21:34;;;;;;;8.77;2.10;;;;;;;-145.18;100.00;60484.78;5031026;28;20044;-68
2022/05/16 11:24:19;;;;;;;8.73;2.50;;;;;;;-145.18;100.00;60484.78;5034498;28;20037;-68
2022/05/16 11:26:57;;;;;;;9.07;2.55;;;;;;;-145.18;100.00;60484.78;5035608;28;20091;-68
2022/05/16 11:29:33;;;;;;;8.57;2.30;;;;;;;-145.18;100.00;60484.78;5031274;28;20032;-68
2022/05/16 11:32:06;;;;;;;7.43;2.00;;;;;;;-145.18;100.00;60484.78;5030902;28;20030;-68
2022/05/16 11:34:52;;;;;;;8.55;2.20;;;;;;;-145.18;100.00;60484.78;5031255;28;20025;-68
2022/05/16 11:37:47;;;;;;;9.13;2.20;;;;;;;-145.18;100.00;60484.78;5031117;28;20436;-68
2022/05/16 11:40:44;;;;;;;12.20;2.20;;;;;;;-145.18;100.00;60484.78;5031071;28;20032;-68
2022/05/16 11:43:24;;;;;;;8.38;2.45;;;;;;;-145.18;100.00;60484.78;5030961;28;20029;-68
2022/05/16 11:46:13;;;;;;;11.30;2.17;;;;;;;-145.18;100.00;60484.78;5046460;28;20115;-68
2022/05/16 11:48:51;;;;;;;9.63;2.47;;;;;;;-145.18;100.00;60484.78;5030848;28;20355;-69
2022/05/16 11:51:54;;;;;;;8.95;2.05;;;;;;;-145.18;100.00;60484.78;5031838;28;20160;-68
2022/05/16 11:54:30;;;;;;;7.15;2.22;;;;;;;-145.18;100.00;60484.78;5040143;28;20094;-68